地図

経路データ

SID SEASON NUMBER BASIN SUBBASIN NAME ISO_TIME NATURE LAT LON WMO_WIND WMO_PRES WMO_AGENCY TRACK_TYPE DIST2LAND LANDFALL IFLAG USA_AGENCY USA_ATCF_ID USA_LAT USA_LON USA_RECORD USA_STATUS USA_WIND USA_PRES USA_SSHS USA_R34_NE USA_R34_SE USA_R34_SW USA_R34_NW USA_R50_NE USA_R50_SE USA_R50_SW USA_R50_NW USA_R64_NE USA_R64_SE USA_R64_SW USA_R64_NW USA_POCI USA_ROCI USA_RMW USA_EYE TOKYO_LAT TOKYO_LON TOKYO_GRADE TOKYO_WIND TOKYO_PRES TOKYO_R50_DIR TOKYO_R50_LONG TOKYO_R50_SHORT TOKYO_R30_DIR TOKYO_R30_LONG TOKYO_R30_SHORT TOKYO_LAND CMA_LAT CMA_LON CMA_CAT CMA_WIND CMA_PRES HKO_LAT HKO_LON HKO_CAT HKO_WIND HKO_PRES NEWDELHI_LAT NEWDELHI_LON NEWDELHI_GRADE NEWDELHI_WIND NEWDELHI_PRES NEWDELHI_CI NEWDELHI_DP NEWDELHI_POCI REUNION_LAT REUNION_LON REUNION_TYPE REUNION_WIND REUNION_PRES REUNION_TNUM REUNION_CI REUNION_RMW REUNION_R34_NE REUNION_R34_SE REUNION_R34_SW REUNION_R34_NW REUNION_R50_NE REUNION_R50_SE REUNION_R50_SW REUNION_R50_NW REUNION_R64_NE REUNION_R64_SE REUNION_R64_SW REUNION_R64_NW BOM_LAT BOM_LON BOM_TYPE BOM_WIND BOM_PRES BOM_TNUM BOM_CI BOM_RMW BOM_R34_NE BOM_R34_SE BOM_R34_SW BOM_R34_NW BOM_R50_NE BOM_R50_SE BOM_R50_SW BOM_R50_NW BOM_R64_NE BOM_R64_SE BOM_R64_SW BOM_R64_NW BOM_ROCI BOM_POCI BOM_EYE BOM_POS_METHOD BOM_PRES_METHOD NADI_LAT NADI_LON NADI_CAT NADI_WIND NADI_PRES WELLINGTON_LAT WELLINGTON_LON WELLINGTON_WIND WELLINGTON_PRES DS824_LAT DS824_LON DS824_STAGE DS824_WIND DS824_PRES TD9636_LAT TD9636_LON TD9636_STAGE TD9636_WIND TD9636_PRES TD9635_LAT TD9635_LON TD9635_WIND TD9635_PRES TD9635_ROCI NEUMANN_LAT NEUMANN_LON NEUMANN_CLASS NEUMANN_WIND NEUMANN_PRES MLC_LAT MLC_LON MLC_CLASS MLC_WIND MLC_PRES USA_GUST BOM_GUST BOM_GUST_PER REUNION_GUST REUNION_GUST_PER USA_SEAHGT USA_SEARAD_NE USA_SEARAD_SE USA_SEARAD_SW USA_SEARAD_NW STORM_SPEED STORM_DIR
1970138N12281 1970 43 NA CS ALMA 1970-05-17 18:00:00 TS 11.5000 -79.0000 25 hurdat_atl main 224 224 O_____________ hurdat_atl AL011970 11.5000 -79.0000 TD 25 -1 2 316
1970138N12281 1970 43 NA CS ALMA 1970-05-17 21:00:00 TS 11.5750 -79.0676 main 235 235 P_____________ AL011970 11.5750 -79.0676 TD 25 -1 3 315
1970138N12281 1970 43 NA CS ALMA 1970-05-18 00:00:00 TS 11.7000 -79.2000 25 hurdat_atl main 246 246 O_____________ hurdat_atl AL011970 11.7000 -79.2000 TD 25 -1 5 312
1970138N12281 1970 43 NA CS ALMA 1970-05-18 03:00:00 TS 11.9000 -79.4349 main 268 268 P_____________ AL011970 11.9000 -79.4349 TD 25 -1 6 309
1970138N12281 1970 43 NA CS ALMA 1970-05-18 06:00:00 TS 12.1000 -79.7000 25 hurdat_atl main 291 291 O_____________ hurdat_atl AL011970 12.1000 -79.7000 TD 25 -1 6 304
1970138N12281 1970 43 NA CS ALMA 1970-05-18 09:00:00 TS 12.2150 -79.9076 main 303 303 P_____________ AL011970 12.2150 -79.9076 TD 25 -1 4 297
1970138N12281 1970 43 NA CS ALMA 1970-05-18 12:00:00 TS 12.3000 -80.1000 25 1007 hurdat_atl main 316 316 O_____________ hurdat_atl AL011970 12.3000 -80.1000 TD 25 1007 -1 4 293
1970138N12281 1970 43 NA CS ALMA 1970-05-18 15:00:00 TS 12.3775 -80.2926 main 331 325 P_____________ AL011970 12.3775 -80.2926 TD 25 -1 4 297
1970138N12281 1970 43 NA CS ALMA 1970-05-18 18:00:00 TS 12.5000 -80.5000 25 hurdat_atl main 325 303 O_____________ hurdat_atl AL011970 12.5000 -80.5000 TD 25 -1 6 309
1970138N12281 1970 43 NA CS ALMA 1970-05-18 21:00:00 TS 12.7275 -80.7425 main 303 271 P_____________ AL011970 12.7275 -80.7425 TD 25 -1 7 316
1970138N12281 1970 43 NA CS ALMA 1970-05-19 00:00:00 TS 13.0000 -81.0000 25 hurdat_atl main 271 248 O_____________ hurdat_atl AL011970 13.0000 -81.0000 TD 25 -1 7 317
1970138N12281 1970 43 NA CS ALMA 1970-05-19 03:00:00 TS 13.2500 -81.2501 main 238 204 P_____________ AL011970 13.2500 -81.2501 TD 25 -1 7 316
1970138N12281 1970 43 NA CS ALMA 1970-05-19 06:00:00 TS 13.5000 -81.5000 25 hurdat_atl main 204 175 O_____________ hurdat_atl AL011970 13.5000 -81.5000 TD 25 -1 7 316
1970138N12281 1970 43 NA CS ALMA 1970-05-19 09:00:00 TS 13.7500 -81.7501 main 165 133 P_____________ AL011970 13.7500 -81.7501 TD 25 -1 7 316
1970138N12281 1970 43 NA CS ALMA 1970-05-19 12:00:00 TS 14.0000 -82.0000 25 1005 hurdat_atl main 133 97 O_____________ hurdat_atl AL011970 14.0000 -82.0000 TD 25 1005 -1 7 312
1970138N12281 1970 43 NA CS ALMA 1970-05-19 15:00:00 TS 14.2126 -82.2875 main 97 76 P_____________ AL011970 14.2126 -82.2875 TD 25 -1 7 316
1970138N12281 1970 43 NA CS ALMA 1970-05-19 18:00:00 TS 14.5000 -82.5000 25 hurdat_atl main 78 53 O_____________ hurdat_atl AL011970 14.5000 -82.5000 TD 25 -1 8 342
1970138N12281 1970 43 NA CS ALMA 1970-05-19 21:00:00 TS 14.9850 -82.5526 main 53 53 P_____________ AL011970 14.9850 -82.5526 TD 30 -1 10 1
1970138N12281 1970 43 NA CS ALMA 1970-05-20 00:00:00 TS 15.5000 -82.5000 35 hurdat_atl main 85 85 O_____________ hurdat_atl AL011970 15.5000 -82.5000 TS 35 0 9 8
1970138N12281 1970 43 NA CS ALMA 1970-05-20 03:00:00 TS 15.8800 -82.4300 main 125 125 P_____________ AL011970 15.8800 -82.4300 TS 35 0 7 15
1970138N12281 1970 43 NA CS ALMA 1970-05-20 06:00:00 TS 16.2000 -82.3000 35 hurdat_atl main 154 154 O_____________ hurdat_atl AL011970 16.2000 -82.3000 TS 35 0 7 26
1970138N12281 1970 43 NA CS ALMA 1970-05-20 09:00:00 TS 16.5225 -82.1076 main 193 193 P_____________ AL011970 16.5225 -82.1076 TS 50 0 7 33
1970138N12281 1970 43 NA CS ALMA 1970-05-20 12:00:00 TS 16.8000 -81.9000 65 hurdat_atl main 232 232 O_____________ hurdat_atl AL011970 16.8000 -81.9000 HU 65 1 6 35
1970138N12281 1970 43 NA CS ALMA 1970-05-20 15:00:00 TS 16.9849 -81.7647 main 255 255 P_____________ AL011970 16.9849 -81.7647 HU 67 1 5 36
1970138N12281 1970 43 NA CS ALMA 1970-05-20 18:00:00 TS 17.2000 -81.6000 70 993 hurdat_atl main 286 286 O_____________ hurdat_atl AL011970 17.2000 -81.6000 HU 70 993 1 8 33
1970138N12281 1970 43 NA CS ALMA 1970-05-20 21:00:00 TS 17.6150 -81.3303 main 314 275 P_____________ AL011970 17.6150 -81.3303 HU 62 0 10 36
1970138N12281 1970 43 NA CS ALMA 1970-05-21 00:00:00 TS 18.0000 -81.0000 55 hurdat_atl main 275 232 O_____________ hurdat_atl AL011970 18.0000 -81.0000 TS 55 0 9 53
1970138N12281 1970 43 NA CS ALMA 1970-05-21 03:00:00 TS 18.1376 -80.6123 main 232 200 P_____________ AL011970 18.1376 -80.6123 TS 52 0 7 73
1970138N12281 1970 43 NA CS ALMA 1970-05-21 06:00:00 TS 18.2000 -80.3000 50 hurdat_atl main 200 190 O_____________ hurdat_atl AL011970 18.2000 -80.3000 TS 50 0 4 63
1970138N12281 1970 43 NA CS ALMA 1970-05-21 09:00:00 TS 18.3274 -80.2124 main 190 190 P_____________ AL011970 18.3274 -80.2124 TS 47 0 3 17
1970138N12281 1970 43 NA CS ALMA 1970-05-21 12:00:00 TS 18.5000 -80.2000 45 hurdat_atl main 192 184 O_____________ hurdat_atl AL011970 18.5000 -80.2000 TS 45 0 4 16
1970138N12281 1970 43 NA CS ALMA 1970-05-21 15:00:00 TS 18.7275 -80.0851 main 187 181 P_____________ AL011970 18.7275 -80.0851 TS 42 0 5 21
1970138N12281 1970 43 NA CS ALMA 1970-05-21 18:00:00 TS 19.0000 -80.0000 40 998 hurdat_atl main 190 190 O_____________ hurdat_atl AL011970 19.0000 -80.0000 TS 40 998 0 6 7
1970138N12281 1970 43 NA CS ALMA 1970-05-21 21:00:00 TS 19.3599 -79.9973 main 210 210 P_____________ AL011970 19.3599 -79.9973 TS 37 1001 0 6 351
1970138N12281 1970 43 NA CS ALMA 1970-05-22 00:00:00 TS 19.6000 -80.1000 35 1004 hurdat_atl main 228 228 O_____________ hurdat_atl AL011970 19.6000 -80.1000 TS 35 1004 0 3 296
1970138N12281 1970 43 NA CS ALMA 1970-05-22 03:00:00 TS 19.5101 -80.3202 main 243 243 P_____________ AL011970 19.5101 -80.3202 TS 32 -1 6 237
1970138N12281 1970 43 NA CS ALMA 1970-05-22 06:00:00 TS 19.3000 -80.6000 30 hurdat_atl main 262 262 O_____________ hurdat_atl AL011970 19.3000 -80.6000 TD 30 -1 6 236
1970138N12281 1970 43 NA CS ALMA 1970-05-22 09:00:00 TS 19.1849 -80.8350 main 276 276 P_____________ AL011970 19.1849 -80.8350 TD 30 -1 5 247
1970138N12281 1970 43 NA CS ALMA 1970-05-22 12:00:00 TS 19.1000 -81.1000 30 hurdat_atl main 301 301 O_____________ hurdat_atl AL011970 19.1000 -81.1000 TD 30 -1 6 253
1970138N12281 1970 43 NA CS ALMA 1970-05-22 15:00:00 TS 19.0199 -81.4201 main 305 287 P_____________ AL011970 19.0199 -81.4201 TD 30 -1 7 261
1970138N12281 1970 43 NA CS ALMA 1970-05-22 18:00:00 TS 19.0000 -81.8000 30 1007 hurdat_atl main 287 275 O_____________ hurdat_atl AL011970 19.0000 -81.8000 TD 30 1007 -1 8 272
1970138N12281 1970 43 NA CS ALMA 1970-05-22 21:00:00 TS 19.0475 -82.2426 main 275 246 P_____________ AL011970 19.0475 -82.2426 TD 30 -1 9 283
1970138N12281 1970 43 NA CS ALMA 1970-05-23 00:00:00 TS 19.2000 -82.7000 30 hurdat_atl main 246 224 O_____________ hurdat_atl AL011970 19.2000 -82.7000 TD 30 -1 9 294
1970138N12281 1970 43 NA CS ALMA 1970-05-23 03:00:00 TS 19.4250 -83.1375 main 225 193 P_____________ AL011970 19.4250 -83.1375 TD 27 -1 10 308
1970138N12281 1970 43 NA CS ALMA 1970-05-23 06:00:00 TS 19.8000 -83.5000 25 hurdat_atl main 193 152 O_____________ hurdat_atl AL011970 19.8000 -83.5000 TD 25 -1 11 329
1970138N12281 1970 43 NA CS ALMA 1970-05-23 09:00:00 TS 20.3774 -83.7524 main 148 101 P_____________ AL011970 20.3774 -83.7524 TD 25 -1 13 343
1970138N12281 1970 43 NA CS ALMA 1970-05-23 12:00:00 TS 21.0000 -83.9000 25 hurdat_atl main 101 55 O_____________ hurdat_atl AL011970 21.0000 -83.9000 TD 25 -1 11 349
1970138N12281 1970 43 NA CS ALMA 1970-05-23 15:00:00 TS 21.4575 -83.9802 main 44 0 P_____________ AL011970 21.4575 -83.9802 TD 25 -1 9 354
1970138N12281 1970 43 NA CS ALMA 1970-05-23 18:00:00 TS 21.9000 -84.0000 25 hurdat_atl main 0 0 O_____________ hurdat_atl AL011970 21.9000 -84.0000 TD 25 -1 10 359
1970138N12281 1970 43 NA NA ALMA 1970-05-23 21:00:00 TS 22.4425 -84.0076 main 0 0 P_____________ AL011970 22.4425 -84.0076 TD 25 -1 11 0
1970138N12281 1970 43 NA GM ALMA 1970-05-24 00:00:00 TS 23.0000 -84.0000 25 hurdat_atl main 33 33 O_____________ hurdat_atl AL011970 23.0000 -84.0000 TD 25 -1 11 0
1970138N12281 1970 43 NA GM ALMA 1970-05-24 03:00:00 TS 23.4925 -84.0000 main 84 84 P_____________ AL011970 23.4925 -84.0000 TD 25 -1 10 1
1970138N12281 1970 43 NA GM ALMA 1970-05-24 06:00:00 TS 24.0000 -84.0000 25 hurdat_atl main 137 137 O_____________ hurdat_atl AL011970 24.0000 -84.0000 TD 25 -1 11 0
1970138N12281 1970 43 NA GM ALMA 1970-05-24 09:00:00 TS 24.5550 -84.0074 main 199 199 P_____________ AL011970 24.5550 -84.0074 TD 25 -1 12 1
1970138N12281 1970 43 NA GM ALMA 1970-05-24 12:00:00 TS 25.2000 -84.0000 25 1008 hurdat_atl main 242 196 O_____________ hurdat_atl AL011970 25.2000 -84.0000 TD 25 1008 -1 14 2
1970138N12281 1970 43 NA GM ALMA 1970-05-24 15:00:00 TS 25.9775 -83.9723 main 191 140 P_____________ AL011970 25.9775 -83.9723 TD 25 -1 16 3
1970138N12281 1970 43 NA GM ALMA 1970-05-24 18:00:00 TS 26.8000 -83.9000 25 hurdat_atl main 140 99 O_____________ hurdat_atl AL011970 26.8000 -83.9000 TD 25 -1 16 6
1970138N12281 1970 43 NA GM ALMA 1970-05-24 21:00:00 TS 27.5799 -83.7946 main 94 76 P_____________ AL011970 27.5799 -83.7946 TD 25 -1 15 10
1970138N12281 1970 43 NA GM ALMA 1970-05-25 00:00:00 TS 28.3000 -83.6000 25 hurdat_atl main 81 38 O_____________ hurdat_atl AL011970 28.3000 -83.6000 TD 25 -1 14 19
1970138N12281 1970 43 NA GM ALMA 1970-05-25 03:00:00 TS 28.9301 -83.2801 main 38 0 P_____________ AL011970 28.9301 -83.2801 TD 25 -1 14 27
1970138N12281 1970 43 NA NA ALMA 1970-05-25 06:00:00 TS 29.5000 -82.9000 25 hurdat_atl main 0 0 O_____________ hurdat_atl AL011970 29.5000 -82.9000 TD 25 -1 13 30
1970138N12281 1970 43 NA NA ALMA 1970-05-25 09:00:00 TS 30.0500 -82.5421 main 0 0 P_____________ AL011970 30.0500 -82.5421 TD 25 -1 13 29
1970138N12281 1970 43 NA NA ALMA 1970-05-25 12:00:00 TS 30.6000 -82.2000 25 hurdat_atl main 0 0 O_____________ hurdat_atl AL011970 30.6000 -82.2000 TD 25 -1 13 26
1970138N12281 1970 43 NA NA ALMA 1970-05-25 15:00:00 TS 31.2225 -81.8776 main 0 0 P_____________ AL011970 31.2225 -81.8776 TD 25 -1 13 23
1970138N12281 1970 43 NA NA ALMA 1970-05-25 18:00:00 TS 31.8000 -81.6000 25 hurdat_atl main 0 0 O_____________ hurdat_atl AL011970 31.8000 -81.6000 TD 25 -1 11 22
1970138N12281 1970 43 NA NA ALMA 1970-05-25 21:00:00 TS 32.2373 -81.3918 main 0 0 P_____________ AL011970 32.2373 -81.3918 TD 25 -1 9 23
1970138N12281 1970 43 NA NA ALMA 1970-05-26 00:00:00 TS 32.6000 -81.2000 25 1005 hurdat_atl main 0 0 O_____________ hurdat_atl AL011970 32.6000 -81.2000 TD 25 1005 -1 7 28
1970138N12281 1970 43 NA NA ALMA 1970-05-26 03:00:00 TS 32.8973 -80.9788 main 0 0 P_____________ AL011970 32.8973 -80.9788 TD 25 -1 8 31
1970138N12281 1970 43 NA NA ALMA 1970-05-26 06:00:00 TS 33.3000 -80.7000 25 hurdat_atl main 0 0 O_____________ hurdat_atl AL011970 33.3000 -80.7000 TD 25 -1 13 25
1970138N12281 1970 43 NA NA ALMA 1970-05-26 09:00:00 TS 34.0347 -80.3530 main 0 0 P_____________ AL011970 34.0347 -80.3530 TD 25 -1 16 24
1970138N12281 1970 43 NA NA ALMA 1970-05-26 12:00:00 TS 34.8000 -79.9000 25 hurdat_atl main 0 0 O_____________ hurdat_atl AL011970 34.8000 -79.9000 TD 25 -1 15 33
1970138N12281 1970 43 NA NA ALMA 1970-05-26 15:00:00 TS 35.3019 -79.3662 main 0 0 P_____________ AL011970 35.3019 -79.3662 TD 25 -1 13 47
1970138N12281 1970 43 NA NA ALMA 1970-05-26 18:00:00 TS 35.7000 -78.7000 25 hurdat_atl main 0 0 O_____________ hurdat_atl AL011970 35.7000 -78.7000 TD 25 -1 15 56
1970138N12281 1970 43 NA NA ALMA 1970-05-26 21:00:00 TS 36.1304 -77.8729 main 0 0 P_____________ AL011970 36.1304 -77.8729 TD 25 -1 16 60
1970138N12281 1970 43 NA NA ALMA 1970-05-27 00:00:00 ET 36.5000 -77.0000 25 1003 hurdat_atl main 0 0 O_____________ hurdat_atl AL011970 36.5000 -77.0000 EX 25 1003 -4 15 64
1970138N12281 1970 43 NA NA ALMA 1970-05-27 03:00:00 ET 36.7778 -76.2176 main 0 0 P_____________ AL011970 36.7778 -76.2176 EX 25 -4 13 67
1970138N12281 1970 43 NA NA ALMA 1970-05-27 06:00:00 ET 37.0000 -75.5000 25 hurdat_atl main 37 O_____________ hurdat_atl AL011970 37.0000 -75.5000 EX 25 -4 12 69

IBTrACS Databaseについて

本データベースは、米国NOAAが公開する1842年以降の世界の熱帯低気圧のベストトラックデータアーカイブInternational Best Track Archive for Climate Stewardship (IBTrACS)を、ウェブで閲覧しやすい形式に変換したものです。

最終更新日:2021-10-19